createdAt,value
2019-06-08T00:01:58.887Z,13.00
2019-06-08T00:04:27.390Z,23.10
2019-06-08T00:06:56.006Z,14.53
2019-06-08T00:09:24.737Z,9.80
2019-06-08T00:11:53.429Z,11.73
2019-06-08T00:14:23.320Z,13.83
2019-06-08T00:16:52.123Z,13.87
2019-06-08T00:19:21.522Z,13.87
2019-06-08T00:21:50.058Z,17.73
2019-06-08T00:24:19.824Z,12.67
2019-06-08T00:26:48.476Z,17.37
2019-06-08T00:29:18.302Z,14.90
2019-06-08T00:31:47.079Z,12.97
2019-06-08T00:34:16.556Z,11.50
2019-06-08T00:36:45.673Z,15.67
2019-06-08T00:39:14.706Z,15.37
2019-06-08T00:41:43.506Z,12.63
2019-06-08T00:44:12.109Z,15.57
2019-06-08T00:46:40.779Z,19.27
2019-06-08T00:49:09.410Z,11.87
2019-06-08T00:51:38.088Z,11.63
2019-06-08T00:54:06.823Z,13.40
2019-06-08T00:56:35.510Z,10.63
2019-06-08T00:59:04.257Z,13.87
2019-06-08T01:01:32.791Z,12.30
2019-06-08T01:04:01.475Z,15.07
2019-06-08T01:06:30.040Z,12.27
2019-06-08T01:08:58.610Z,16.10
2019-06-08T01:11:27.291Z,19.67
2019-06-08T01:13:55.977Z,20.40
2019-06-08T01:16:25.038Z,16.00
2019-06-08T01:18:53.690Z,14.83
2019-06-08T01:21:23.284Z,16.83
2019-06-08T01:23:51.983Z,12.77
2019-06-08T01:26:22.151Z,15.00
2019-06-08T01:28:51.001Z,13.93
2019-06-08T01:31:20.376Z,14.63
2019-06-08T01:33:49.013Z,12.40
2019-06-08T01:36:17.589Z,14.93
2019-06-08T01:38:48.843Z,13.33
2019-06-08T01:41:17.543Z,15.03
2019-06-08T01:43:46.109Z,15.60
2019-06-08T01:46:14.807Z,14.17
2019-06-08T01:48:43.377Z,16.10
2019-06-08T01:51:11.961Z,16.70
2019-06-08T01:53:40.594Z,13.93
2019-06-08T01:56:09.279Z,14.07
2019-06-08T01:58:37.881Z,18.30
2019-06-08T02:01:07.027Z,19.67
2019-06-08T02:03:35.734Z,16.13
2019-06-08T02:06:04.356Z,17.83
2019-06-08T02:08:33.006Z,20.50
2019-06-08T02:11:01.625Z,18.33
2019-06-08T02:13:31.013Z,18.23
2019-06-08T02:15:59.637Z,19.47
2019-06-08T02:18:41.912Z,17.87
2019-06-08T02:20:58.607Z,17.17
2019-06-08T02:23:27.284Z,25.80
2019-06-08T02:25:56.024Z,18.57
2019-06-08T02:28:24.700Z,25.67
2019-06-08T02:30:53.384Z,19.53
2019-06-08T02:33:21.954Z,19.83
2019-06-08T02:35:50.552Z,21.27
2019-06-08T02:38:19.256Z,24.53
2019-06-08T02:40:47.901Z,24.93
2019-06-08T02:43:16.735Z,25.10
2019-06-08T02:45:45.422Z,21.60
2019-06-08T02:48:14.064Z,21.33
2019-06-08T02:50:53.519Z,24.37
2019-06-08T02:53:22.858Z,21.63
2019-06-08T02:55:51.540Z,23.87
2019-06-08T02:58:20.975Z,22.43
2019-06-08T03:00:50.655Z,20.67
2019-06-08T03:03:19.433Z,20.33
2019-06-08T03:05:50.733Z,25.23
2019-06-08T03:08:20.732Z,25.37
2019-06-08T03:10:51.928Z,22.53
2019-06-08T03:13:22.880Z,22.30
2019-06-08T03:15:51.514Z,25.83
2019-06-08T03:18:20.057Z,23.90
2019-06-08T03:20:48.696Z,18.00
2019-06-08T03:23:17.380Z,17.20
2019-06-08T03:25:52.996Z,17.97
2019-06-08T03:28:16.416Z,20.43
2019-06-08T03:30:53.175Z,16.83
2019-06-08T03:33:15.410Z,20.30
2019-06-08T03:35:55.455Z,24.93
2019-06-08T03:38:14.237Z,21.37
2019-06-08T03:40:45.153Z,14.90
2019-06-08T03:43:13.232Z,19.63
2019-06-08T03:45:43.050Z,15.37
2019-06-08T03:48:12.193Z,16.30
2019-06-08T03:50:42.063Z,16.17
2019-06-08T03:53:11.212Z,14.83
2019-06-08T03:55:40.516Z,12.77
2019-06-08T03:58:10.570Z,14.57
2019-06-08T04:00:40.429Z,14.37
2019-06-08T04:03:09.119Z,21.17
2019-06-08T04:05:39.807Z,15.70
2019-06-08T04:08:08.054Z,16.53
2019-06-08T04:10:37.644Z,17.10
2019-06-08T04:13:11.404Z,19.03
2019-06-08T04:15:40.403Z,15.53
2019-06-08T04:18:09.163Z,15.83
2019-06-08T04:20:38.076Z,17.67
2019-06-08T04:23:06.760Z,17.73
2019-06-08T04:25:35.421Z,13.37
2019-06-08T04:28:04.072Z,17.20
2019-06-08T04:30:32.667Z,11.87
2019-06-08T04:33:01.166Z,13.23
2019-06-08T04:35:29.856Z,12.47
2019-06-08T04:37:58.477Z,16.63
2019-06-08T04:40:27.161Z,14.23
2019-06-08T04:42:55.736Z,16.83
2019-06-08T04:45:24.302Z,20.13
2019-06-08T04:47:52.986Z,68.03
2019-06-08T04:50:24.024Z,13.60
2019-06-08T04:52:52.008Z,14.13
2019-06-08T04:55:20.651Z,18.87
2019-06-08T04:57:50.842Z,18.70
2019-06-08T05:00:20.268Z,15.87
2019-06-08T05:02:51.139Z,27.20
2019-06-08T05:05:19.240Z,22.27
2019-06-08T05:07:49.758Z,20.10
2019-06-08T05:10:18.346Z,16.67
2019-06-08T05:12:47.748Z,22.23
2019-06-08T05:15:17.590Z,13.50
2019-06-08T05:17:47.491Z,18.00
2019-06-08T05:20:17.189Z,12.90
2019-06-08T05:22:47.578Z,17.23
2019-06-08T05:25:16.444Z,13.47
2019-06-08T05:27:45.400Z,15.63
2019-06-08T05:30:15.021Z,21.93
2019-06-08T05:32:43.754Z,17.00
2019-06-08T05:35:12.784Z,14.57
2019-06-08T05:37:41.575Z,18.87
2019-06-08T05:40:10.312Z,11.87
2019-06-08T05:42:40.601Z,13.07
2019-06-08T05:45:09.900Z,14.58
2019-06-08T05:47:39.758Z,11.17
2019-06-08T05:50:09.628Z,12.37
2019-06-08T05:52:39.756Z,12.50
2019-06-08T05:55:09.368Z,11.95
2019-06-08T05:57:38.002Z,10.40
2019-06-08T06:00:13.158Z,13.00
2019-06-08T06:02:42.246Z,15.72
2019-06-08T06:05:11.279Z,15.80
2019-06-08T06:07:40.572Z,11.00
2019-06-08T06:10:09.504Z,14.77
2019-06-08T06:12:38.147Z,16.70
2019-06-08T06:15:10.058Z,8.43
2019-06-08T06:17:38.705Z,11.30
2019-06-08T06:20:07.840Z,16.45
2019-06-08T06:22:36.528Z,16.85
2019-06-08T06:25:06.950Z,21.90
2019-06-08T06:27:36.509Z,13.58
2019-06-08T06:30:07.914Z,14.78
2019-06-08T06:32:38.688Z,14.50
2019-06-08T06:35:07.379Z,15.40
2019-06-08T06:37:36.018Z,14.35
2019-06-08T06:40:07.102Z,19.07
2019-06-08T06:42:35.688Z,9.70
2019-06-08T06:45:06.724Z,10.28
2019-06-08T06:47:35.256Z,12.78
2019-06-08T06:50:05.184Z,9.58
2019-06-08T06:52:35.899Z,16.77
2019-06-08T06:55:05.741Z,8.45
2019-06-08T06:57:36.397Z,16.17
2019-06-08T07:00:09.513Z,11.90
2019-06-08T07:02:38.156Z,11.12
2019-06-08T07:05:08.636Z,9.08
2019-06-08T07:07:37.263Z,25.17
2019-06-08T07:10:09.050Z,8.45
2019-06-08T07:12:37.764Z,10.05
2019-06-08T07:15:07.429Z,14.78
2019-06-08T07:17:36.094Z,7.47
2019-06-08T07:20:07.158Z,7.22
2019-06-08T07:22:35.881Z,8.43
2019-06-08T07:25:05.114Z,9.20
2019-06-08T07:27:33.747Z,14.25
2019-06-08T07:30:02.624Z,10.18
2019-06-08T07:32:31.261Z,16.25
2019-06-08T07:34:59.836Z,17.55
2019-06-08T07:37:28.450Z,14.80
2019-06-08T07:39:57.192Z,14.95
2019-06-08T07:42:25.801Z,14.68
2019-06-08T07:44:55.087Z,11.20
2019-06-08T07:47:23.905Z,6.47
2019-06-08T07:49:53.264Z,15.45
2019-06-08T07:52:22.004Z,10.43
2019-06-08T07:54:50.988Z,11.28
2019-06-08T07:57:19.686Z,11.15
2019-06-08T07:59:49.181Z,12.60
2019-06-08T08:02:18.791Z,6.55
2019-06-08T08:04:48.431Z,8.00
2019-06-08T08:07:17.070Z,7.45
2019-06-08T08:09:45.600Z,14.15
2019-06-08T08:12:14.240Z,13.18
2019-06-08T08:14:42.866Z,10.38
2019-06-08T08:17:11.445Z,7.87
2019-06-08T08:19:42.203Z,9.08
2019-06-08T08:22:22.089Z,8.58
2019-06-08T08:24:41.161Z,10.05
2019-06-08T08:27:09.801Z,4.45
2019-06-08T08:29:38.515Z,9.78
2019-06-08T08:32:07.568Z,10.15
2019-06-08T08:34:38.175Z,9.75
2019-06-08T08:37:09.498Z,9.80
2019-06-08T08:39:37.791Z,13.53
2019-06-08T08:42:08.477Z,10.40
2019-06-08T08:44:38.039Z,11.68
2019-06-08T08:47:07.624Z,12.23
2019-06-08T08:49:38.024Z,15.30
2019-06-08T08:52:11.235Z,10.55
2019-06-08T08:54:37.785Z,11.48
2019-06-08T08:57:08.416Z,22.58
2019-06-08T08:59:38.211Z,14.73
2019-06-08T09:02:08.354Z,21.60
2019-06-08T09:04:38.018Z,7.25
2019-06-08T09:07:10.230Z,9.63
2019-06-08T09:09:38.662Z,12.45
2019-06-08T09:12:08.313Z,14.85
2019-06-08T09:14:38.749Z,12.95
2019-06-08T09:17:08.593Z,8.83
2019-06-08T09:19:38.217Z,16.00
2019-06-08T09:22:08.577Z,18.60
2019-06-08T09:24:39.041Z,12.63
2019-06-08T09:27:08.209Z,12.33
2019-06-08T09:29:38.818Z,8.98
2019-06-08T09:32:08.276Z,9.68
2019-06-08T09:34:38.622Z,9.15
2019-06-08T09:37:08.075Z,10.78
2019-06-08T09:39:38.560Z,12.68
2019-06-08T09:42:09.053Z,7.22
2019-06-08T09:44:37.906Z,10.90
2019-06-08T09:47:12.158Z,12.53
2019-06-08T09:49:37.766Z,8.25
2019-06-08T09:52:08.431Z,9.55
2019-06-08T09:54:38.485Z,10.50
2019-06-08T09:57:09.030Z,9.55
2019-06-08T09:59:38.574Z,6.00
2019-06-08T10:02:12.411Z,12.15
2019-06-08T10:04:41.001Z,10.13
2019-06-08T10:07:11.737Z,8.38
2019-06-08T10:09:43.242Z,8.35
2019-06-08T10:12:10.712Z,14.03
2019-06-08T10:14:39.295Z,10.82
2019-06-08T10:17:09.020Z,8.33
2019-06-08T10:19:39.913Z,12.23
2019-06-08T10:22:08.742Z,10.48
2019-06-08T10:24:41.173Z,12.70
2019-06-08T10:27:11.026Z,6.62
2019-06-08T10:29:38.354Z,8.93
2019-06-08T10:32:09.218Z,7.95
2019-06-08T10:34:38.794Z,9.33
2019-06-08T10:37:12.722Z,8.88
2019-06-08T10:39:38.058Z,7.20
2019-06-08T10:42:09.780Z,10.32
2019-06-08T10:44:38.195Z,9.30
2019-06-08T10:47:09.989Z,13.48
2019-06-08T10:49:38.405Z,7.65
2019-06-08T10:52:10.654Z,11.33
2019-06-08T10:54:37.997Z,12.10
2019-06-08T10:57:07.759Z,22.00
2019-06-08T10:59:40.293Z,7.60
2019-06-08T11:02:13.438Z,12.47
2019-06-08T11:04:43.153Z,6.58
2019-06-08T11:07:15.537Z,10.00
2019-06-08T11:09:42.369Z,9.33
2019-06-08T11:12:14.566Z,7.22
2019-06-08T11:14:41.316Z,4.92
2019-06-08T11:17:11.210Z,15.10
2019-06-08T11:19:40.065Z,9.70
2019-06-08T11:22:13.885Z,4.85
2019-06-08T11:24:39.040Z,11.60
2019-06-08T11:27:11.118Z,8.18
2019-06-08T11:29:38.508Z,9.35
2019-06-08T11:32:10.911Z,3.75
2019-06-08T11:34:37.972Z,6.40
2019-06-08T11:37:11.352Z,5.67
2019-06-08T11:39:38.258Z,5.70
2019-06-08T11:42:09.836Z,8.93
2019-06-08T11:44:39.023Z,8.18
2019-06-08T11:47:12.197Z,9.75
2019-06-08T11:49:38.111Z,7.50
2019-06-08T11:52:06.956Z,5.35
2019-06-08T11:54:38.047Z,9.78
2019-06-08T11:57:08.363Z,9.60
2019-06-08T11:59:37.524Z,5.10
2019-06-08T12:02:09.078Z,6.15
2019-06-08T12:04:38.415Z,7.90
2019-06-08T12:07:09.532Z,7.40
2019-06-08T12:09:37.423Z,6.15
2019-06-08T12:12:09.056Z,7.45
2019-06-08T12:14:37.695Z,6.78
2019-06-08T12:17:11.776Z,9.13
2019-06-08T12:19:37.721Z,10.80
2019-06-08T12:22:08.778Z,4.67
2019-06-08T12:24:41.950Z,7.28
2019-06-08T12:27:21.736Z,7.15
2019-06-08T12:29:39.020Z,8.80
2019-06-08T12:32:09.371Z,8.70
2019-06-08T12:34:38.466Z,6.22
2019-06-08T12:37:08.786Z,7.42
2019-06-08T12:39:38.809Z,8.95
2019-06-08T12:42:09.618Z,6.53
2019-06-08T12:44:38.447Z,16.80
2019-06-08T12:47:10.614Z,5.45
2019-06-08T12:49:40.124Z,5.55
2019-06-08T12:52:09.963Z,11.80
2019-06-08T12:54:38.199Z,10.58
2019-06-08T12:57:10.159Z,8.18
2019-06-08T12:59:38.527Z,22.05
2019-06-08T13:02:10.567Z,7.05
2019-06-08T13:04:38.404Z,7.20
2019-06-08T13:07:09.697Z,9.88
2019-06-08T13:09:38.418Z,16.37
2019-06-08T13:12:08.021Z,98.25
2019-06-08T13:14:38.543Z,10.32
2019-06-08T13:17:08.612Z,12.85
2019-06-08T13:19:38.584Z,18.05
2019-06-08T13:22:08.964Z,20.57
2019-06-08T13:24:37.885Z,17.35
2019-06-08T13:27:06.922Z,13.93
2019-06-08T13:29:35.625Z,17.75
2019-06-08T13:32:07.849Z,11.05
2019-06-08T13:34:38.666Z,14.98
2019-06-08T13:37:08.331Z,13.68
2019-06-08T13:39:38.815Z,8.13
2019-06-08T13:42:07.819Z,14.80
2019-06-08T13:44:37.794Z,11.75
2019-06-08T13:47:07.630Z,11.73
2019-06-08T13:49:37.683Z,8.28
2019-06-08T13:52:07.918Z,9.95
2019-06-08T13:54:38.197Z,18.02
2019-06-08T13:57:08.523Z,23.75
2019-06-08T13:59:39.003Z,21.80
2019-06-08T14:02:07.826Z,14.00
2019-06-08T14:04:39.487Z,12.82
2019-06-08T14:07:07.800Z,17.25
2019-06-08T14:09:38.271Z,19.35
2019-06-08T14:12:07.734Z,12.15
2019-06-08T14:14:39.664Z,15.80
2019-06-08T14:17:08.659Z,11.97
2019-06-08T14:19:38.533Z,12.15
2019-06-08T14:22:10.421Z,11.83
2019-06-08T14:24:37.939Z,12.90
2019-06-08T14:27:08.193Z,21.17
2019-06-08T14:29:36.973Z,18.05
2019-06-08T14:32:07.773Z,18.77
2019-06-08T14:34:38.633Z,16.80
2019-06-08T14:37:08.598Z,16.77
2019-06-08T14:39:37.502Z,11.53
2019-06-08T14:42:08.218Z,17.30
2019-06-08T14:44:38.105Z,13.35
2019-06-08T14:47:15.652Z,21.23
2019-06-08T14:49:48.753Z,26.33
2019-06-08T14:52:19.341Z,15.20
2019-06-08T14:54:51.142Z,15.10
2019-06-08T14:57:21.273Z,15.38
2019-06-08T14:59:50.359Z,12.80
2019-06-08T15:02:19.472Z,18.23
2019-06-08T15:04:48.519Z,16.82
2019-06-08T15:07:20.058Z,18.92
2019-06-08T15:09:48.010Z,15.10
2019-06-08T15:12:17.822Z,18.45
2019-06-08T15:14:49.556Z,14.15
2019-06-08T15:17:19.304Z,18.02
2019-06-08T15:19:48.173Z,10.70
2019-06-08T15:22:18.744Z,17.00
2019-06-08T15:24:47.876Z,17.12
2019-06-08T15:27:18.391Z,18.15
2019-06-08T15:29:47.735Z,12.00
2019-06-08T15:32:17.892Z,9.83
2019-06-08T15:34:47.721Z,14.98
2019-06-08T15:37:18.599Z,12.43
2019-06-08T15:39:48.591Z,19.30
2019-06-08T15:42:18.036Z,14.80
2019-06-08T15:44:47.998Z,15.38
2019-06-08T15:47:18.037Z,17.85
2019-06-08T15:49:50.189Z,19.45
2019-06-08T15:52:17.582Z,18.48
2019-06-08T15:54:48.302Z,25.68
2019-06-08T15:57:18.014Z,24.35
2019-06-08T15:59:49.049Z,53.20
2019-06-08T16:02:16.958Z,26.68
2019-06-08T16:04:45.597Z,22.45
2019-06-08T16:07:17.353Z,24.75
2019-06-08T16:09:45.829Z,23.22
2019-06-08T16:12:14.431Z,32.42
2019-06-08T16:14:42.994Z,23.87
2019-06-08T16:17:11.706Z,23.00
2019-06-08T16:19:40.346Z,27.52
2019-06-08T16:22:08.991Z,22.13
2019-06-08T16:24:37.659Z,33.92
2019-06-08T16:27:06.221Z,23.45
2019-06-08T16:29:35.140Z,29.10
2019-06-08T16:32:03.877Z,52.80
2019-06-08T16:34:35.646Z,26.90
2019-06-08T16:37:04.345Z,31.35
2019-06-08T16:39:33.045Z,32.13
2019-06-08T16:42:02.139Z,34.13
2019-06-08T16:44:32.188Z,27.98
2019-06-08T16:47:00.905Z,32.70
2019-06-08T16:49:29.485Z,38.33
2019-06-08T16:51:58.149Z,38.98
2019-06-08T16:54:26.823Z,29.15
2019-06-08T16:57:08.938Z,46.25
2019-06-08T16:59:25.718Z,26.20
2019-06-08T17:01:54.282Z,38.75
2019-06-08T17:04:22.889Z,29.57
2019-06-08T17:06:51.449Z,34.25
2019-06-08T17:09:20.063Z,27.62
2019-06-08T17:11:48.621Z,26.55
2019-06-08T17:14:17.120Z,26.23
2019-06-08T17:16:45.717Z,28.75
2019-06-08T17:19:14.371Z,33.38
2019-06-08T17:21:42.991Z,29.37
2019-06-08T17:24:11.574Z,27.42
2019-06-08T17:26:40.806Z,36.25
2019-06-08T17:29:09.541Z,46.30
2019-06-08T17:31:39.230Z,41.00
2019-06-08T17:34:08.085Z,33.00
2019-06-08T17:36:36.719Z,34.70
2019-06-08T17:39:07.003Z,33.55
2019-06-08T17:41:36.097Z,28.02
2019-06-08T17:44:04.749Z,32.25
2019-06-08T17:46:34.568Z,33.55
2019-06-08T17:49:03.459Z,27.48
2019-06-08T17:51:32.797Z,32.23
2019-06-08T17:54:01.408Z,30.30
2019-06-08T17:56:30.081Z,28.80
2019-06-08T17:58:58.718Z,37.53
2019-06-08T18:01:27.361Z,34.18
2019-06-08T18:03:57.445Z,32.98
2019-06-08T18:06:27.196Z,33.58
2019-06-08T18:08:58.596Z,32.80
2019-06-08T18:11:27.960Z,26.57
2019-06-08T18:13:58.806Z,29.32
2019-06-08T18:16:27.912Z,22.80
2019-06-08T18:18:57.748Z,25.92
2019-06-08T18:21:28.250Z,38.63
2019-06-08T18:23:57.283Z,27.75
2019-06-08T18:26:27.827Z,27.80
2019-06-08T18:28:58.138Z,22.58
2019-06-08T18:31:27.680Z,24.35
2019-06-08T18:33:57.851Z,26.30
2019-06-08T18:36:27.634Z,22.98
2019-06-08T18:38:58.174Z,25.43
2019-06-08T18:41:27.205Z,24.98
2019-06-08T18:43:58.201Z,21.82
2019-06-08T18:46:27.184Z,24.47
2019-06-08T18:48:57.870Z,24.65
2019-06-08T18:51:29.335Z,21.65
2019-06-08T18:54:08.657Z,25.88
2019-06-08T18:56:28.327Z,19.17
2019-06-08T18:58:58.278Z,22.70
2019-06-08T19:01:27.509Z,22.30
2019-06-08T19:03:57.927Z,25.95
2019-06-08T19:06:27.843Z,20.30
2019-06-08T19:08:58.053Z,29.18
2019-06-08T19:11:28.560Z,25.92
2019-06-08T19:13:58.051Z,27.15
2019-06-08T19:16:28.511Z,22.82
2019-06-08T19:18:58.104Z,28.45
2019-06-08T19:21:27.783Z,21.07
2019-06-08T19:23:56.972Z,28.57
2019-06-08T19:26:28.010Z,31.87
2019-06-08T19:28:57.798Z,20.02
2019-06-08T19:31:27.674Z,25.37
2019-06-08T19:33:58.103Z,18.62
2019-06-08T19:36:28.376Z,30.05
2019-06-08T19:38:57.691Z,27.60
2019-06-08T19:41:28.567Z,21.85
2019-06-08T19:43:58.423Z,26.07
2019-06-08T19:46:27.330Z,25.35
2019-06-08T19:48:58.738Z,23.62
2019-06-08T19:51:28.163Z,22.48
2019-06-08T19:53:58.350Z,24.07
2019-06-08T19:56:28.161Z,28.80
2019-06-08T19:59:03.924Z,25.10
2019-06-08T20:01:28.395Z,19.02
2019-06-08T20:03:58.116Z,26.80
2019-06-08T20:06:27.937Z,25.25
2019-06-08T20:08:57.512Z,24.10
2019-06-08T20:11:29.471Z,20.72
2019-06-08T20:13:57.981Z,27.17
2019-06-08T20:16:27.885Z,30.82
2019-06-08T20:18:58.276Z,37.03
2019-06-08T20:21:27.584Z,31.85
2019-06-08T20:23:58.471Z,32.90
2019-06-08T20:26:28.437Z,47.95
2019-06-08T20:29:11.543Z,45.52
2019-06-08T20:31:30.559Z,38.25
2019-06-08T20:33:59.251Z,32.17
2019-06-08T20:36:28.847Z,40.80
2019-06-08T20:38:58.456Z,36.80
2019-06-08T20:41:27.766Z,33.15
2019-06-08T20:43:59.153Z,35.13
2019-06-08T20:46:28.680Z,29.98
2019-06-08T20:48:57.758Z,28.73
2019-06-08T20:51:28.959Z,30.68
2019-06-08T20:53:57.640Z,27.65
2019-06-08T20:56:28.036Z,21.27
2019-06-08T20:58:57.433Z,22.80
2019-06-08T21:01:26.137Z,25.00
2019-06-08T21:03:56.996Z,24.67
2019-06-08T21:06:25.074Z,18.15
2019-06-08T21:08:54.925Z,26.57
2019-06-08T21:11:24.060Z,23.40
2019-06-08T21:13:53.906Z,16.95
2019-06-08T21:16:22.776Z,21.73
2019-06-08T21:18:51.316Z,22.43
2019-06-08T21:21:19.884Z,19.62
2019-06-08T21:23:52.553Z,19.70
2019-06-08T21:26:18.865Z,20.47
2019-06-08T21:28:52.809Z,22.53
2019-06-08T21:31:20.317Z,19.97
2019-06-08T21:33:50.983Z,18.52
2019-06-08T21:36:19.176Z,23.60
2019-06-08T21:38:52.316Z,19.23
2019-06-08T21:41:20.219Z,19.00
2019-06-08T21:43:51.735Z,22.83
2019-06-08T21:46:19.139Z,29.00
2019-06-08T21:48:50.222Z,17.17
2019-06-08T21:51:18.031Z,19.53
2019-06-08T21:53:48.253Z,20.83
2019-06-08T21:56:18.164Z,17.93
2019-06-08T21:58:48.618Z,17.30
2019-06-08T22:01:18.200Z,24.83
2019-06-08T22:03:49.702Z,27.37
2019-06-08T22:06:18.346Z,19.77
2019-06-08T22:08:48.126Z,23.77
2019-06-08T22:11:17.700Z,24.60
2019-06-08T22:13:47.662Z,16.50
2019-06-08T22:16:16.563Z,20.17
2019-06-08T22:18:47.303Z,25.73
2019-06-08T22:21:17.994Z,26.57
2019-06-08T22:23:47.620Z,22.20
2019-06-08T22:26:17.781Z,22.37
2019-06-08T22:28:48.214Z,17.77
2019-06-08T22:31:23.127Z,19.93
2019-06-08T22:33:52.588Z,15.30
2019-06-08T22:36:21.146Z,19.83
2019-06-08T22:38:49.725Z,27.80
2019-06-08T22:41:18.293Z,20.30
2019-06-08T22:43:48.118Z,28.47
2019-06-08T22:46:17.804Z,30.87
2019-06-08T22:48:47.735Z,21.53
2019-06-08T22:51:18.762Z,20.07
2019-06-08T22:53:47.816Z,24.30
2019-06-08T22:56:18.330Z,21.40
2019-06-08T22:58:47.939Z,21.33
2019-06-08T23:01:18.355Z,26.17
2019-06-08T23:03:47.581Z,21.30
2019-06-08T23:06:17.647Z,20.50
2019-06-08T23:08:48.098Z,19.87
2019-06-08T23:11:18.013Z,25.37
2019-06-08T23:13:47.199Z,26.87
2019-06-08T23:16:17.999Z,16.57
2019-06-08T23:18:47.830Z,23.13
2019-06-08T23:21:18.077Z,18.40
2019-06-08T23:23:47.669Z,20.87
2019-06-08T23:26:18.343Z,22.90
2019-06-08T23:28:47.276Z,18.67
2019-06-08T23:31:24.241Z,18.73
2019-06-08T23:33:48.206Z,32.93
2019-06-08T23:38:48.161Z,19.57
2019-06-08T23:41:17.759Z,27.53
2019-06-08T23:43:48.059Z,18.80
2019-06-08T23:46:18.148Z,14.87
2019-06-08T23:48:48.454Z,21.83
2019-06-08T23:51:18.066Z,18.43
2019-06-08T23:53:47.820Z,26.37
2019-06-08T23:56:18.293Z,22.30
2019-06-08T23:58:48.231Z,23.17
